createdAt,value
2022-10-19T00:00:00.467Z,12.57
2022-10-19T00:02:27.388Z,12.60
2022-10-19T00:04:54.277Z,11.82
2022-10-19T00:07:21.187Z,12.05
2022-10-19T00:09:48.102Z,12.10
2022-10-19T00:12:15.085Z,9.80
2022-10-19T00:14:41.936Z,15.88
2022-10-19T00:17:08.816Z,13.82
2022-10-19T00:19:35.975Z,12.82
2022-10-19T00:22:02.862Z,11.68
2022-10-19T00:24:29.716Z,11.90
2022-10-19T00:26:56.672Z,14.35
2022-10-19T00:29:23.597Z,9.05
2022-10-19T00:31:51.119Z,10.30
2022-10-19T00:34:18.558Z,13.10
2022-10-19T00:36:46.067Z,12.93
2022-10-19T00:39:19.040Z,9.43
2022-10-19T00:41:47.716Z,8.77
2022-10-19T00:44:15.947Z,8.38
2022-10-19T00:46:45.365Z,6.65
2022-10-19T00:49:15.037Z,16.88
2022-10-19T00:51:47.279Z,14.43
2022-10-19T00:54:15.731Z,8.15
2022-10-19T00:56:45.145Z,10.20
2022-10-19T00:59:15.144Z,5.75
2022-10-19T01:04:12.292Z,9.45
2022-10-19T01:06:40.508Z,13.20
2022-10-19T01:09:08.094Z,14.48
2022-10-19T01:11:57.559Z,11.90
2022-10-19T01:14:45.982Z,7.75
2022-10-19T01:17:27.785Z,8.88
2022-10-19T01:20:25.493Z,10.23
2022-10-19T01:23:29.147Z,7.75
2022-10-19T01:26:17.869Z,8.52
2022-10-19T01:28:59.509Z,13.13
2022-10-19T01:31:55.898Z,10.93
2022-10-19T01:34:38.450Z,8.50
2022-10-19T01:37:33.305Z,7.68
2022-10-19T01:40:34.257Z,11.13
2022-10-19T01:43:32.379Z,9.88
2022-10-19T01:46:09.133Z,10.20
2022-10-19T01:48:40.963Z,9.55
2022-10-19T01:51:13.360Z,9.40
2022-10-19T01:53:44.334Z,7.03
2022-10-19T01:56:12.800Z,9.32
2022-10-19T01:58:41.120Z,9.75
2022-10-19T02:03:40.485Z,12.27
2022-10-19T02:06:09.881Z,8.95
2022-10-19T02:08:46.911Z,7.07
2022-10-19T02:11:15.010Z,8.18
2022-10-19T02:13:44.326Z,10.95
2022-10-19T02:16:20.556Z,7.45
2022-10-19T02:18:50.758Z,11.75
2022-10-19T02:21:18.766Z,10.43
2022-10-19T02:23:47.514Z,9.05
2022-10-19T02:26:16.328Z,8.98
2022-10-19T02:28:43.224Z,9.32
2022-10-19T02:31:10.785Z,10.02
2022-10-19T02:33:38.346Z,10.05
2022-10-19T02:36:05.448Z,11.63
2022-10-19T02:38:32.522Z,11.13
2022-10-19T02:41:14.693Z,12.13
2022-10-19T02:43:45.271Z,5.70
2022-10-19T02:46:43.893Z,6.72
2022-10-19T02:49:12.436Z,6.63
2022-10-19T02:51:54.841Z,3.42
2022-10-19T02:54:21.929Z,3.72
2022-10-19T02:56:48.788Z,2.45
2022-10-19T02:59:15.678Z,3.17
2022-10-19T03:01:43.274Z,2.25
2022-10-19T03:04:10.156Z,3.70
2022-10-19T03:06:37.011Z,6.28
2022-10-19T03:09:04.415Z,3.90
2022-10-19T03:11:31.330Z,3.75
2022-10-19T03:13:58.186Z,2.92
2022-10-19T03:16:25.048Z,2.42
2022-10-19T03:18:52.192Z,1.27
2022-10-19T03:21:19.976Z,2.30
2022-10-19T03:23:47.340Z,3.75
2022-10-19T03:26:15.477Z,2.05
2022-10-19T03:28:42.704Z,1.02
2022-10-19T03:31:09.796Z,2.30
2022-10-19T03:33:36.662Z,2.70
2022-10-19T03:36:18.247Z,1.50
2022-10-19T03:38:45.192Z,1.58
2022-10-19T03:41:12.590Z,2.88
2022-10-19T03:43:41.293Z,2.25
2022-10-19T03:46:09.388Z,2.35
2022-10-19T03:48:36.489Z,2.38
2022-10-19T03:51:09.797Z,2.20
2022-10-19T03:53:37.103Z,1.70
2022-10-19T03:56:14.214Z,1.48
2022-10-19T03:58:42.069Z,3.88
2022-10-19T04:01:14.013Z,1.60
2022-10-19T04:03:42.358Z,0.60
2022-10-19T04:06:10.955Z,1.05
2022-10-19T04:08:38.260Z,1.05
2022-10-19T04:11:09.799Z,2.35
2022-10-19T04:13:37.385Z,2.40
2022-10-19T04:16:04.986Z,1.45
2022-10-19T04:18:32.492Z,1.40
2022-10-19T04:21:01.332Z,1.25
2022-10-19T04:23:29.847Z,3.90
2022-10-19T04:26:15.348Z,2.05
2022-10-19T04:28:42.802Z,2.30
2022-10-19T04:31:11.872Z,0.75
2022-10-19T04:33:40.124Z,2.23
2022-10-19T04:36:09.484Z,1.67
2022-10-19T04:38:37.165Z,2.10
2022-10-19T04:41:06.367Z,2.03
2022-10-19T04:43:33.785Z,1.08
2022-10-19T04:46:05.919Z,1.02
2022-10-19T04:48:35.860Z,0.70
2022-10-19T04:53:30.580Z,0.90
2022-10-19T04:55:57.579Z,1.33
2022-10-19T04:58:26.362Z,1.88
2022-10-19T05:00:53.320Z,3.83
2022-10-19T05:03:20.268Z,5.63
2022-10-19T05:05:47.559Z,3.30
2022-10-19T05:08:14.888Z,5.68
2022-10-19T05:10:44.298Z,4.50
2022-10-19T05:13:14.813Z,6.25
2022-10-19T05:15:42.255Z,11.02
2022-10-19T05:18:09.591Z,6.65
2022-10-19T05:20:36.909Z,6.03
2022-10-19T05:23:06.428Z,5.07
2022-10-19T05:25:34.653Z,5.18
2022-10-19T05:28:01.982Z,4.28
2022-10-19T05:30:29.391Z,2.70
2022-10-19T05:32:56.676Z,5.65
2022-10-19T05:35:23.943Z,7.20
2022-10-19T05:37:55.519Z,11.98
2022-10-19T05:40:22.346Z,11.52
2022-10-19T05:42:49.196Z,6.97
2022-10-19T05:45:16.111Z,6.10
2022-10-19T05:47:42.955Z,7.30
2022-10-19T05:50:09.968Z,3.00
2022-10-19T05:52:36.826Z,5.45
2022-10-19T05:55:04.107Z,4.43
2022-10-19T05:57:33.391Z,3.28
2022-10-19T06:00:00.399Z,5.72
2022-10-19T06:02:27.265Z,12.48
2022-10-19T06:04:54.089Z,6.95
2022-10-19T06:07:20.975Z,5.13
2022-10-19T06:09:48.085Z,7.72
2022-10-19T06:12:16.305Z,6.85
2022-10-19T06:14:43.522Z,25.38
2022-10-19T06:17:10.846Z,10.70
2022-10-19T06:19:37.873Z,23.80
2022-10-19T06:22:04.805Z,9.77
2022-10-19T06:24:31.745Z,19.38
2022-10-19T06:26:58.668Z,10.82
2022-10-19T06:29:25.827Z,18.27
2022-10-19T06:31:54.370Z,10.15
2022-10-19T06:34:21.324Z,15.88
2022-10-19T06:36:48.221Z,3.92
2022-10-19T06:39:15.118Z,1.17
2022-10-19T06:41:42.031Z,4.32
2022-10-19T06:44:09.402Z,4.10
2022-10-19T06:46:36.256Z,2.95
2022-10-19T06:49:03.228Z,1.50
2022-10-19T06:51:32.193Z,2.42
2022-10-19T06:53:59.084Z,7.82
2022-10-19T06:56:26.738Z,7.30
2022-10-19T06:58:54.674Z,10.38
2022-10-19T07:01:22.310Z,7.40
2022-10-19T07:03:51.396Z,9.07
2022-10-19T07:06:18.738Z,2.45
2022-10-19T07:08:45.614Z,3.15
2022-10-19T07:11:19.189Z,2.67
2022-10-19T07:13:46.222Z,2.80
2022-10-19T07:16:19.501Z,1.60
2022-10-19T07:18:48.874Z,4.35
2022-10-19T07:21:16.999Z,16.48
2022-10-19T07:23:47.129Z,4.65
2022-10-19T07:26:21.383Z,3.13
2022-10-19T07:28:49.350Z,6.53
2022-10-19T07:31:24.262Z,5.55
2022-10-19T07:34:02.501Z,2.53
2022-10-19T07:36:31.129Z,3.80
2022-10-19T07:38:58.385Z,8.80
2022-10-19T07:41:26.725Z,7.15
2022-10-19T07:43:54.698Z,6.07
2022-10-19T07:46:25.442Z,7.55
2022-10-19T07:48:53.498Z,11.07
2022-10-19T07:51:21.282Z,5.20
2022-10-19T07:53:48.650Z,2.63
2022-10-19T07:56:18.410Z,5.32
2022-10-19T07:58:45.488Z,3.50
2022-10-19T08:01:13.952Z,5.82
2022-10-19T08:04:31.690Z,1.27
2022-10-19T08:06:28.558Z,8.40
2022-10-19T08:08:56.479Z,4.68
2022-10-19T08:11:31.187Z,4.82
2022-10-19T08:14:02.985Z,2.60
2022-10-19T08:16:39.545Z,2.92
2022-10-19T08:19:09.774Z,6.93
2022-10-19T08:21:37.960Z,2.95
2022-10-19T08:24:05.882Z,3.92
2022-10-19T08:26:34.556Z,5.93
2022-10-19T08:29:02.331Z,5.20
2022-10-19T08:31:29.600Z,5.30
2022-10-19T08:33:57.002Z,6.00
2022-10-19T08:36:24.580Z,1.63
2022-10-19T08:38:51.474Z,0.90
2022-10-19T08:41:23.251Z,2.80
2022-10-19T08:44:14.745Z,2.83
2022-10-19T08:47:23.302Z,3.88
2022-10-19T08:49:51.171Z,0.90
2022-10-19T08:52:28.585Z,4.45
2022-10-19T08:55:01.145Z,5.57
2022-10-19T08:57:54.542Z,2.83
2022-10-19T09:00:46.710Z,4.25
2022-10-19T09:03:37.688Z,5.78
2022-10-19T09:06:40.619Z,1.52
2022-10-19T09:09:12.529Z,2.80
2022-10-19T09:11:46.282Z,1.45
2022-10-19T09:14:35.892Z,2.33
2022-10-19T09:17:16.600Z,7.75
2022-10-19T09:19:43.470Z,4.03
2022-10-19T09:22:20.818Z,8.00
2022-10-19T09:25:03.236Z,3.83
2022-10-19T09:27:41.161Z,6.03
2022-10-19T09:30:16.305Z,5.60
2022-10-19T09:32:43.477Z,8.65
2022-10-19T09:35:48.133Z,3.90
2022-10-19T09:38:16.921Z,1.48
2022-10-19T09:40:44.369Z,7.07
2022-10-19T09:43:21.844Z,1.33
2022-10-19T09:45:53.915Z,4.10
2022-10-19T09:48:27.870Z,0.77
2022-10-19T09:51:03.031Z,5.78
2022-10-19T09:53:30.644Z,4.40
2022-10-19T09:56:03.610Z,4.50
2022-10-19T09:58:33.120Z,1.58
2022-10-19T10:01:01.456Z,2.88
2022-10-19T10:03:36.155Z,3.63
2022-10-19T10:06:06.854Z,1.85
2022-10-19T10:08:37.010Z,2.80
2022-10-19T10:11:07.115Z,4.00
2022-10-19T10:16:08.220Z,3.78
2022-10-19T10:18:49.295Z,3.42
2022-10-19T10:21:25.539Z,6.13
2022-10-19T10:24:20.890Z,7.88
2022-10-19T10:26:54.821Z,2.97
2022-10-19T10:29:26.420Z,2.95
2022-10-19T10:32:07.546Z,3.05
2022-10-19T10:34:45.973Z,2.13
2022-10-19T10:37:21.925Z,5.25
2022-10-19T10:39:53.008Z,6.57
2022-10-19T10:42:28.555Z,2.67
2022-10-19T10:44:56.595Z,2.05
2022-10-19T10:47:23.751Z,2.72
2022-10-19T10:49:57.870Z,0.47
2022-10-19T10:52:27.794Z,2.42
2022-10-19T10:57:35.626Z,1.15
2022-10-19T11:00:18.104Z,1.55
2022-10-19T11:02:56.946Z,5.95
2022-10-19T11:05:33.889Z,3.95
2022-10-19T11:08:12.587Z,2.15
2022-10-19T11:11:33.660Z,5.50
2022-10-19T11:14:22.293Z,1.77
2022-10-19T11:16:52.378Z,2.30
2022-10-19T11:19:24.400Z,4.38
2022-10-19T11:22:24.911Z,1.42
2022-10-19T11:24:59.945Z,1.70
2022-10-19T11:27:46.524Z,3.08
2022-10-19T11:30:25.555Z,3.22
2022-10-19T11:32:55.285Z,1.87
2022-10-19T11:35:35.854Z,0.43
2022-10-19T11:38:30.465Z,4.60
2022-10-19T11:41:26.926Z,6.85
2022-10-19T11:44:17.738Z,4.05
2022-10-19T11:46:50.682Z,2.67
2022-10-19T11:49:32.824Z,0.68
2022-10-19T11:52:02.344Z,1.50
2022-10-19T11:54:47.259Z,2.45
2022-10-19T11:57:21.705Z,1.23
2022-10-19T11:59:48.553Z,1.50
2022-10-19T12:02:30.804Z,6.63
2022-10-19T12:05:10.810Z,1.40
2022-10-19T12:10:17.456Z,1.67
2022-10-19T12:12:47.515Z,0.47
2022-10-19T12:15:28.656Z,0.70
2022-10-19T12:18:02.095Z,1.13
2022-10-19T12:20:39.882Z,1.42
2022-10-19T12:23:24.626Z,5.78
2022-10-19T12:25:53.140Z,0.60
2022-10-19T12:28:27.556Z,1.27
2022-10-19T12:30:55.767Z,1.58
2022-10-19T12:33:22.598Z,1.52
2022-10-19T12:36:05.460Z,2.55
2022-10-19T12:39:01.029Z,2.50
2022-10-19T12:41:44.384Z,0.98
2022-10-19T12:44:44.708Z,1.65
2022-10-19T12:47:19.292Z,1.90
2022-10-19T12:49:47.878Z,1.75
2022-10-19T12:52:35.162Z,1.80
2022-10-19T12:55:24.651Z,11.40
2022-10-19T12:58:21.529Z,6.97
2022-10-19T13:01:03.983Z,14.98
2022-10-19T13:03:35.298Z,2.38
2022-10-19T13:06:12.775Z,2.40
2022-10-19T13:08:48.064Z,4.22
2022-10-19T13:11:15.798Z,1.80
2022-10-19T13:14:01.627Z,1.05
2022-10-19T13:16:37.610Z,1.42
2022-10-19T13:19:13.628Z,0.75
2022-10-19T13:22:02.146Z,6.45
2022-10-19T13:24:36.738Z,2.78
2022-10-19T13:27:03.749Z,1.80
2022-10-19T13:29:41.320Z,6.15
2022-10-19T13:32:29.856Z,6.88
2022-10-19T13:35:31.923Z,0.95
2022-10-19T13:38:16.937Z,1.15
2022-10-19T13:40:49.994Z,2.60
2022-10-19T13:43:25.040Z,4.00
2022-10-19T13:46:03.266Z,3.13
2022-10-19T13:48:38.993Z,2.10
2022-10-19T13:51:29.658Z,3.55
2022-10-19T13:54:17.149Z,4.03
2022-10-19T13:56:53.411Z,3.78
2022-10-19T14:01:54.661Z,9.07
2022-10-19T14:04:26.252Z,9.10
2022-10-19T14:06:53.481Z,10.98
2022-10-19T14:09:20.699Z,8.88
2022-10-19T14:11:49.207Z,5.30
2022-10-19T14:14:25.715Z,4.22
2022-10-19T14:17:04.457Z,8.82
2022-10-19T14:19:33.334Z,2.65
2022-10-19T14:22:01.856Z,3.78
2022-10-19T14:24:33.875Z,2.38
2022-10-19T14:27:02.012Z,3.88
2022-10-19T14:29:29.342Z,1.55
2022-10-19T14:31:59.098Z,1.45
2022-10-19T14:34:26.444Z,2.30
2022-10-19T14:36:53.925Z,0.70
2022-10-19T14:39:27.236Z,2.63
2022-10-19T14:41:55.896Z,6.97
2022-10-19T14:44:37.705Z,9.07
2022-10-19T14:47:16.207Z,4.57
2022-10-19T14:49:43.490Z,3.58
2022-10-19T14:52:11.833Z,3.03
2022-10-19T14:54:43.782Z,6.55
2022-10-19T14:57:24.911Z,5.72
2022-10-19T14:59:54.177Z,3.45
2022-10-19T15:02:27.439Z,5.38
2022-10-19T15:04:55.784Z,2.97
2022-10-19T15:07:28.971Z,3.72
2022-10-19T15:09:58.471Z,3.03
2022-10-19T15:12:36.755Z,2.05
2022-10-19T15:15:30.558Z,1.92
2022-10-19T15:18:03.727Z,1.40
2022-10-19T15:20:49.384Z,4.78
2022-10-19T15:23:31.414Z,1.98
2022-10-19T15:26:02.470Z,1.88
2022-10-19T15:28:34.861Z,2.72
2022-10-19T15:31:14.441Z,2.63
2022-10-19T15:33:44.532Z,2.97
2022-10-19T15:36:19.731Z,3.08
2022-10-19T15:38:48.491Z,1.58
2022-10-19T15:41:20.421Z,1.42
2022-10-19T15:43:51.827Z,1.85
2022-10-19T15:46:31.649Z,1.13
2022-10-19T15:49:00.054Z,4.82
2022-10-19T15:51:27.316Z,2.05
2022-10-19T15:53:55.439Z,4.18
2022-10-19T15:56:23.303Z,1.73
2022-10-19T15:58:51.247Z,8.02
2022-10-19T16:01:19.775Z,1.90
2022-10-19T16:03:47.249Z,1.67
2022-10-19T16:06:14.499Z,2.65
2022-10-19T16:08:41.764Z,2.60
2022-10-19T16:11:12.143Z,2.67
2022-10-19T16:13:39.354Z,3.95
2022-10-19T16:16:11.365Z,3.10
2022-10-19T16:18:39.624Z,3.30
2022-10-19T16:21:07.614Z,2.60
2022-10-19T16:23:39.414Z,1.67
2022-10-19T16:26:09.408Z,1.38
2022-10-19T16:28:37.023Z,1.42
2022-10-19T16:31:04.359Z,3.72
2022-10-19T16:33:31.610Z,3.95
2022-10-19T16:35:58.856Z,1.05
2022-10-19T16:38:26.053Z,1.75
2022-10-19T16:40:53.256Z,1.58
2022-10-19T16:43:20.507Z,3.05
2022-10-19T16:45:48.408Z,0.95
2022-10-19T16:48:19.785Z,1.30
2022-10-19T16:51:07.453Z,1.25
2022-10-19T16:53:35.508Z,2.88
2022-10-19T16:56:07.399Z,2.15
2022-10-19T16:58:35.121Z,3.03
2022-10-19T17:01:08.419Z,2.03
2022-10-19T17:03:36.613Z,2.00
2022-10-19T17:06:05.182Z,1.40
2022-10-19T17:08:36.859Z,2.33
2022-10-19T17:11:11.625Z,1.37
2022-10-19T17:13:38.978Z,9.43
2022-10-19T17:16:07.616Z,3.58
2022-10-19T17:18:36.449Z,6.97
2022-10-19T17:21:05.336Z,6.22
2022-10-19T17:23:32.776Z,8.63
2022-10-19T17:26:00.713Z,9.88
2022-10-19T17:28:29.270Z,4.28
2022-10-19T17:30:57.905Z,5.13
2022-10-19T17:33:26.395Z,4.60
2022-10-19T17:35:54.638Z,2.60
2022-10-19T17:38:22.215Z,2.67
2022-10-19T17:40:49.437Z,2.78
2022-10-19T17:43:17.083Z,1.73
2022-10-19T17:45:46.324Z,2.88
2022-10-19T17:48:13.904Z,1.90
2022-10-19T17:50:41.552Z,3.42
2022-10-19T17:53:08.897Z,2.38
2022-10-19T17:55:38.168Z,1.48
2022-10-19T17:58:06.461Z,2.72
2022-10-19T18:00:34.035Z,1.38
2022-10-19T18:03:01.574Z,2.25
2022-10-19T18:05:32.469Z,2.65
2022-10-19T18:08:01.661Z,1.77
2022-10-19T18:10:29.006Z,1.00
2022-10-19T18:12:57.130Z,4.55
2022-10-19T18:15:26.053Z,1.77
2022-10-19T18:17:54.605Z,1.33
2022-10-19T18:20:21.868Z,1.70
2022-10-19T18:22:49.257Z,1.42
2022-10-19T18:25:21.834Z,1.65
2022-10-19T18:27:58.492Z,2.80
2022-10-19T18:30:27.191Z,3.50
2022-10-19T18:32:55.002Z,1.52
2022-10-19T18:35:24.037Z,1.70
2022-10-19T18:37:51.390Z,1.97
2022-10-19T18:40:19.760Z,3.47
2022-10-19T18:42:48.791Z,3.92
2022-10-19T18:45:16.204Z,1.70
2022-10-19T18:47:43.989Z,2.63
2022-10-19T18:50:13.243Z,2.22
2022-10-19T18:52:41.140Z,3.17
2022-10-19T18:55:09.275Z,3.67
2022-10-19T18:57:39.371Z,6.35
2022-10-19T19:00:07.309Z,5.50
2022-10-19T19:02:42.544Z,1.52
2022-10-19T19:05:16.771Z,2.20
2022-10-19T19:07:44.195Z,4.25
2022-10-19T19:10:14.473Z,2.60
2022-10-19T19:12:44.467Z,1.00
2022-10-19T19:17:39.903Z,7.82
2022-10-19T19:20:07.340Z,4.15
2022-10-19T19:22:35.659Z,7.03
2022-10-19T19:25:05.197Z,3.00
2022-10-19T19:27:32.676Z,2.33
2022-10-19T19:30:00.712Z,2.78
2022-10-19T19:32:29.406Z,3.42
2022-10-19T19:34:58.574Z,5.68
2022-10-19T19:37:26.895Z,3.15
2022-10-19T19:39:56.514Z,7.95
2022-10-19T19:42:27.793Z,8.27
2022-10-19T19:44:55.266Z,3.50
2022-10-19T19:47:22.764Z,2.92
2022-10-19T19:49:50.235Z,5.25
2022-10-19T19:52:20.609Z,5.07
2022-10-19T19:54:48.319Z,2.22
2022-10-19T19:57:16.462Z,7.80
2022-10-19T19:59:44.697Z,7.57
2022-10-19T20:02:13.478Z,6.18
2022-10-19T20:04:42.438Z,6.00
2022-10-19T20:07:10.372Z,8.13
2022-10-19T20:09:37.609Z,5.70
2022-10-19T20:12:04.969Z,6.10
2022-10-19T20:14:32.170Z,2.65
2022-10-19T20:16:59.464Z,2.65
2022-10-19T20:19:26.709Z,2.85
2022-10-19T20:21:56.322Z,1.48
2022-10-19T20:24:23.525Z,2.42
2022-10-19T20:26:50.791Z,3.13
2022-10-19T20:29:18.102Z,3.40
2022-10-19T20:31:45.424Z,2.22
2022-10-19T20:34:14.049Z,4.80
2022-10-19T20:36:41.836Z,4.35
2022-10-19T20:39:09.514Z,2.22
2022-10-19T20:41:37.036Z,0.88
2022-10-19T20:44:05.435Z,2.53
2022-10-19T20:46:32.713Z,5.68
2022-10-19T20:49:00.841Z,1.95
2022-10-19T20:51:32.543Z,1.90
2022-10-19T20:54:01.550Z,3.60
2022-10-19T20:56:30.406Z,2.00
2022-10-19T20:58:58.820Z,1.58
2022-10-19T21:01:26.216Z,2.08
2022-10-19T21:03:55.000Z,1.08
2022-10-19T21:06:23.127Z,3.78
2022-10-19T21:08:50.941Z,2.05
2022-10-19T21:11:22.292Z,1.73
2022-10-19T21:13:49.817Z,1.02
2022-10-19T21:16:18.080Z,6.43
2022-10-19T21:18:46.028Z,1.13
2022-10-19T21:21:22.375Z,2.25
2022-10-19T21:23:51.248Z,3.33
2022-10-19T21:26:18.769Z,2.72
2022-10-19T21:28:48.055Z,2.03
2022-10-19T21:31:15.560Z,1.20
2022-10-19T21:33:42.814Z,1.58
2022-10-19T21:36:12.507Z,1.45
2022-10-19T21:38:39.753Z,0.85
2022-10-19T21:41:08.278Z,1.25
2022-10-19T21:43:36.101Z,2.15
2022-10-19T21:46:04.114Z,3.42
2022-10-19T21:48:31.462Z,1.05
2022-10-19T21:50:59.043Z,2.53
2022-10-19T21:53:26.511Z,4.13
2022-10-19T21:55:54.502Z,1.45
2022-10-19T21:58:22.325Z,2.85
2022-10-19T22:00:50.022Z,1.42
2022-10-19T22:03:18.414Z,4.18
2022-10-19T22:05:52.427Z,4.05
2022-10-19T22:08:19.860Z,1.15
2022-10-19T22:10:47.101Z,4.72
2022-10-19T22:13:14.608Z,2.90
2022-10-19T22:15:42.108Z,1.67
2022-10-19T22:18:09.772Z,1.48
2022-10-19T22:20:37.970Z,0.95
2022-10-19T22:23:05.563Z,0.70
2022-10-19T22:25:33.139Z,0.65
2022-10-19T22:28:00.385Z,1.63
2022-10-19T22:30:27.779Z,4.75
2022-10-19T22:32:55.906Z,3.83
2022-10-19T22:35:23.317Z,2.17
2022-10-19T22:37:50.572Z,1.30
2022-10-19T22:40:17.798Z,2.85
2022-10-19T22:42:45.005Z,3.67
2022-10-19T22:45:12.279Z,2.08
2022-10-19T22:47:39.481Z,2.05
2022-10-19T22:50:07.659Z,1.77
2022-10-19T22:52:35.141Z,1.40
2022-10-19T22:55:02.568Z,1.60
2022-10-19T22:57:29.798Z,0.75
2022-10-19T22:59:57.037Z,3.03
2022-10-19T23:02:24.308Z,0.50
2022-10-19T23:04:51.561Z,2.50
2022-10-19T23:07:18.826Z,2.70
2022-10-19T23:09:46.089Z,12.93
2022-10-19T23:12:13.431Z,1.85
2022-10-19T23:14:40.654Z,0.90
2022-10-19T23:17:07.878Z,1.50
2022-10-19T23:19:35.135Z,1.83
2022-10-19T23:22:02.452Z,2.13
2022-10-19T23:24:29.893Z,2.40
2022-10-19T23:26:57.249Z,3.40
2022-10-19T23:29:24.615Z,2.05
2022-10-19T23:31:51.900Z,3.53
2022-10-19T23:34:19.198Z,1.83
2022-10-19T23:36:46.494Z,2.03
2022-10-19T23:39:13.766Z,4.00
2022-10-19T23:41:41.013Z,5.13
2022-10-19T23:44:10.346Z,3.13
2022-10-19T23:46:37.614Z,2.05
2022-10-19T23:49:42.555Z,1.67
2022-10-19T23:52:09.862Z,1.02
2022-10-19T23:54:37.138Z,1.25
2022-10-19T23:57:04.897Z,3.70
2022-10-19T23:59:32.225Z,1.60
